Timeline UpdatesTrip UpdatesNews PostsPvt PostsTravel TipsAdmin PostsConv PostsFollowed PostsChat RequestsBlog PostsPNR Posts

Disclaimer
Search
 
 
Wed Sep 3, 2014 02:51:36 ISTHomeTrainsΣChainsAtlasPNRForumGalleryNewsFAQTripsMembersLoginFeedback
No Recent News for this Train
Other Trains in the News **new
Latest...
.
Mon Sep 01, 2014 (10:27PM)
⇐ Return Journey: Train# 15708

15707/Amrapali Express

Time-Table HAS CHANGED.
Sep 01 (11:37PM)
Change Departure Station:
Change Arrival Station:
Post a Train Travel TipPost a Train Travel Tip **new
Post a Comment/Question/Picture/VideoPost a Comment/Question/Picture/Video
Pantry/Catering
✕ NO Pantry Car
✓ Catering Avbl
RSA - Rake Sharing
Rake/Coach Composition
Loco«SLR-GN-GN-GN-GN-A1-B1-S1-S2-S3-S4-S5-S6-S7-S8-S9-GN-GN-GN-GN-GN-SLR= 22 Coach Train. S1 becomes S9 in DN train.
Loco
SGUJ WDP 4 from KIR-LKO, CNB WAP 4 from...
Read more...
LKO-ASR.
News    PNR    Forum    Time-Table    Availability    Fare Chart    Map    Arr/Dep History    Trips    Gallery    ΣChains    X/O    Timeline    
Travel Time: 18h 0m    21 halts    Distance: 976 km    Avg Speed: 54 km/hr
Type: Mail/Express
Zone: NFR/Northeast Frontier
Departs @ 12:50
Platform# 5
SMTWTFS
Gorakhpur Junction/GKP 
Arrives @ 06:50 +1 night
Platform# 7
SMTWTFS
Ambala Cantt. Junction/UMB 

21 halts. 155 intermediate Stations between Gorakhpur Junction and Ambala Cantt. Junction

Show ALL intermediate Stations  Show Old Time-Table

#CodeStation NameX/OArrivesAvgDepartsAvgHaltPFDay#KmSpeedElevZoneAddress
1KIRKatihar Junction (7)  -23:30-11-573.76435mNFRKatihar 854105, Bihar
2CRRKaragola Road  23:51-23:52-1m--1-551.47836mECRLachhmipur, Bihar
3KUEKursela  00:07 00:05-00:08 00:06-1m--2-534.54831mECRNH 31, Bihar
4NNANaugachia (3)  00:25 00:29-00:26 00:30-1m22-515.96437mECRBhagalpur, Bihar
5THBThana Bihpur Junction (3)  00:42 00:45-00:43 00:46-1m--2-500.07639mECRThana Bihpur, Bihar
6MNEMansi Junction (4)X  01:23 01:19-01:24 01:20-1m--2-458.04843mECRMansi, Bihar
7KGGKhagaria Junction (3)  01:43 01:31-01:44 01:32-1m--2-449.25343mECRKhagaria, Bihar
8BGSBegusarai (3)X  02:30 02:17-02:31 02:18-1m--2-409.31546mECRBegusarai, Bihar
9BJUBarauni Junction (9)X  03:10-03:20-10m72-395.95549mECRBegusarai, Bihar
10SPJSamastipur Junction (9)X  04:17 04:15-04:22 04:20-5m82-345.45855mECRSamastipur, Bihar
11KRBPKhudiram B Pusa (2)X  04:36 04:34-04:37 04:35-1m--2-331.76252mECRDistt. Samastipur, Bihar
12DOLDholi (2)  04:50 04:48-04:51 04:49-1m--2-318.442 ECRDistt. Muzaffarpur, Bihar
13MFPMuzaffarpur Junction (6)X  05:27 05:25-05:37 05:30-10 5m32-293.24157mECRMuzaffarpur, Bihar
14HJPHajipur Junction (3)  06:49-06:50-1m--2-239.43355mECR06224-272230, Bihar
15SEESonpur Junction (4)X  07:00-07:10-10m32-233.92756mECRSaran, Bihar
16CPRChhapra Junction (6)  08:40 09:10-08:50 09:20-10m32-179.88258mNERDistt: Saran, Bihar
17SVSiwan Junction (4)  09:40 10:05-09:45 10:10-5m--2-118.67170mNERSiwan, Bihar
18DEOSDeoria Sadar (3)  11:04 11:09-11:05 11:10-1m--2-49.13579mNERDeoria- 274001, Uttar Pradesh
19GKP»Gorakhpur Junction (10)»X  12:15 12:35-12:35 12:50-20 15m520.04884mNERGorakhpur 273001, Uttar Pradesh
20KLDKhalilabad (3)  13:12 13:32-13:13 13:33-1m1233.96686mNERKhalilabad- 272175, Uttar Pradesh
21BSTBasti (4)  13:40 14:00-13:45 14:05-5m1263.412590mNERBasti 272001, Uttar Pradesh
22MURMankapur Junction (5)X14:34-14:36-2m--2124.038104mNERDistrict Gonda, Uttar Pradesh
23GDGonda Junction (3)  15:00 15:20-15:05 15:25-5m12151.955110mNERGonda 271001, Uttar Pradesh
24BBKBarabanki Junction (4)  17:03-17:05-2m--2241.238122mNRPin-225001, Uttar Pradesh
25LKOLucknow Charbagh (9)X  17:50-18:25-35m42269.767123mNR226004, Uttar Pradesh
26ONUnnao Junction (5)X  19:15 19:14-19:16 19:15-1m--2324.330129mNRUnnao, Uttar Pradesh
27CNBKanpur Central (10)X  19:50-20:00-10m62341.786128mNCRKANPUR-208 001, Uttar Pradesh
28ETWEtawah (5)X  21:37-21:38-1m22481.187154mNCRDistt. Etawah, Uttar Pradesh
29FZDFirozabad (4)X  22:30-22:31-1m32556.425164mNCRFirozabad, Uttar Pradesh
30TDLTundla Junction (5)X  23:10-23:15-5m22572.982167mNCRDistt.Firozabad, Uttar Pradesh
31HRSHathras Junction (3)X  23:47 23:50-23:48 23:51-1m--2620.975183mNCRMahamaya Nagar(05722-242803), Uttar Pradesh
32ALJNAligarh Junction (4)  00:15-00:20-5m33651.087192mNCRAligarh, Uttar Pradesh
33KRJKhurja Junction (4)X00:50-00:52-2m--3694.552199mNCRBulandshahr, Uttar Pradesh
34GZBGhaziabad Junction (6)  02:05-02:07-2m33757.245217mNRGhaziabad, Uttar Pradesh
35DSAShahdara Junction (4)  02:25-02:26-1m--3770.816212mNRCircular Rd, Delhi NCT
36DLIOld Delhi Junction (16)  02:50-03:25-35m103777.156219mNRNear Chandni Chowk Metro Station, Delhi NCT
37SNPSonipat (3)X  04:12-04:13-1m--3821.071225mNRSonipat, Haryana
38PNPPanipat Junction (5)X  04:51-04:53-2m33866.276235mNRPanipat, Haryana
39KUNKarnal (3)  05:20-05:21-1m23900.664253mNRKarnal, Haryana
40KKDEKurukshetra Junction (3)  05:52-05:54-2m--3933.745260mNRKurukshetra, Haryana
41UMB•Ambala Cantt. Junction (7)•  06:50-07:00-10m73975.867278mNRAmbala 133001, Haryana
42RPJRajpura Junction (3)07:25-07:27 07:26-2 1m131003.868272mNRNH-1, Punjab
43SIRSirhind Junction (3)X  07:43 07:48-07:45 07:50-2m131028.777271mNRSirhind, Punjab
44KNNKhanna (3)X  07:59 08:04-08:00 08:05-1m131046.643269mNRNH 1, Punjab
45LDHLudhiana Junction (7)X  08:45 09:05-08:55 09:15-10m231089.433246mNRLudhiana 141001, Punjab
46PHRPhillaur Junction (3)  09:19 09:39-09:20 09:40-1m231102.571246mNRPhillaur, Punjab
47PGWPhagwara Junction (3)X  09:39 09:59-09:40 10:00-1m231125.185245mNRPhagwara, Punjab
48JUCJalandhar City Junction (5)  09:55 10:15-10:05 10:25-10m131146.249239mNRJalandhar 144001, Punjab
49BEASBeas Junction (2)X  10:53 11:09-10:54 11:10-1m131182.327238mNRBeas, Punjab
50ASRAmritsar Junction (5)  12:30 12:45--331225.3-233mNRAmritsar 143002, Punjab
Scroll to Top
Scroll to Bottom